createdAt,value
2017-12-24T00:00:46.542Z,55.31
2017-12-24T00:01:46.532Z,55.51
2017-12-24T00:02:46.527Z,55.41
2017-12-24T00:03:46.519Z,55.79
2017-12-24T00:04:46.517Z,55.89
2017-12-24T00:05:46.506Z,55.51
2017-12-24T00:06:46.499Z,55.70
2017-12-24T00:07:46.491Z,55.70
2017-12-24T00:08:46.486Z,55.41
2017-12-24T00:09:46.477Z,55.41
2017-12-24T00:10:46.470Z,55.70
2017-12-24T00:11:46.466Z,55.79
2017-12-24T00:12:46.458Z,55.79
2017-12-24T00:13:46.449Z,56.09
2017-12-24T00:14:46.444Z,56.18
2017-12-24T00:15:46.436Z,56.09
2017-12-24T00:16:46.431Z,56.27
2017-12-24T00:17:46.425Z,56.37
2017-12-24T00:18:46.419Z,56.09
2017-12-24T00:19:46.410Z,56.09
2017-12-24T00:20:46.404Z,56.37
2017-12-24T00:21:46.395Z,56.27
2017-12-24T00:22:46.427Z,56.09
2017-12-24T00:23:46.386Z,56.18
2017-12-24T00:24:46.376Z,55.99
2017-12-24T00:25:46.395Z,56.09
2017-12-24T00:26:46.363Z,55.99
2017-12-24T00:27:46.356Z,55.99
2017-12-24T00:28:46.351Z,56.27
2017-12-24T00:29:46.344Z,56.37
2017-12-24T00:30:46.337Z,56.37
2017-12-24T00:31:46.330Z,56.47
2017-12-24T00:32:46.327Z,56.37
2017-12-24T00:33:46.317Z,56.47
2017-12-24T00:34:46.317Z,56.47
2017-12-24T00:35:46.303Z,56.37
2017-12-24T00:36:46.298Z,56.47
2017-12-24T00:37:46.290Z,56.47
2017-12-24T00:38:46.284Z,56.37
2017-12-24T00:39:46.277Z,56.47
2017-12-24T00:40:46.525Z,56.37
2017-12-24T00:41:46.264Z,56.37
2017-12-24T00:42:46.257Z,56.47
2017-12-24T00:43:46.252Z,57.05
2017-12-24T00:44:46.248Z,56.85
2017-12-24T00:45:46.238Z,56.66
2017-12-24T00:46:46.233Z,56.76
2017-12-24T00:47:46.227Z,56.76
2017-12-24T00:48:46.219Z,56.85
2017-12-24T00:49:46.215Z,56.76
2017-12-24T00:50:46.207Z,56.66
2017-12-24T00:51:46.199Z,56.95
2017-12-24T00:52:46.195Z,56.57
2017-12-24T00:53:46.189Z,56.95
2017-12-24T00:54:46.181Z,56.57
2017-12-24T00:55:46.173Z,56.76
2017-12-24T00:56:46.167Z,56.76
2017-12-24T00:57:46.160Z,56.57
2017-12-24T00:58:46.154Z,56.76
2017-12-24T00:59:46.147Z,56.76
2017-12-24T01:00:46.140Z,57.24
2017-12-24T01:01:46.135Z,56.85
2017-12-24T01:02:46.128Z,57.05
2017-12-24T01:03:46.122Z,56.95
2017-12-24T01:04:46.117Z,56.95
2017-12-24T01:05:46.108Z,56.95
2017-12-24T01:06:46.103Z,57.05
2017-12-24T01:07:46.096Z,56.76
2017-12-24T01:08:46.089Z,56.85
2017-12-24T01:09:46.083Z,57.05
2017-12-24T01:10:46.077Z,56.76
2017-12-24T01:11:46.075Z,56.76
2017-12-24T01:12:46.068Z,56.76
2017-12-24T01:13:46.060Z,56.85
2017-12-24T01:14:46.053Z,56.85
2017-12-24T01:15:46.044Z,57.05
2017-12-24T01:16:46.040Z,57.14
2017-12-24T01:17:46.030Z,57.05
2017-12-24T01:18:46.026Z,56.95
2017-12-24T01:19:46.021Z,57.34
2017-12-24T01:20:46.013Z,56.95
2017-12-24T01:21:46.017Z,57.05
2017-12-24T01:22:46.000Z,57.05
2017-12-24T01:23:45.997Z,57.34
2017-12-24T01:24:45.989Z,57.34
2017-12-24T01:25:45.980Z,57.72
2017-12-24T01:26:45.978Z,57.62
2017-12-24T01:27:45.969Z,57.72
2017-12-24T01:28:45.963Z,57.62
2017-12-24T01:29:45.955Z,57.62
2017-12-24T01:30:45.949Z,57.53
2017-12-24T01:31:45.942Z,57.53
2017-12-24T01:32:45.938Z,57.34
2017-12-24T01:33:45.933Z,57.53
2017-12-24T01:34:45.924Z,57.53
2017-12-24T01:35:45.917Z,57.62
2017-12-24T01:36:45.912Z,57.53
2017-12-24T01:37:45.905Z,57.53
2017-12-24T01:38:45.899Z,57.53
2017-12-24T01:39:45.891Z,57.53
2017-12-24T01:40:45.886Z,57.34
2017-12-24T01:41:45.880Z,57.53
2017-12-24T01:42:45.875Z,57.14
2017-12-24T01:43:45.867Z,57.53
2017-12-24T01:44:45.861Z,57.14
2017-12-24T01:45:45.854Z,57.43
2017-12-24T01:46:45.847Z,57.43
2017-12-24T01:47:45.842Z,57.53
2017-12-24T01:48:45.834Z,57.43
2017-12-24T01:49:45.828Z,57.50
2017-12-24T01:50:45.822Z,57.14
2017-12-24T01:51:45.815Z,57.24
2017-12-24T01:52:45.810Z,57.14
2017-12-24T01:53:45.805Z,57.24
2017-12-24T01:54:45.797Z,57.43
2017-12-24T01:55:45.791Z,57.43
2017-12-24T01:56:45.785Z,57.62
2017-12-24T01:57:45.779Z,57.43
2017-12-24T01:58:45.774Z,57.43
2017-12-24T01:59:45.765Z,57.53
2017-12-24T02:00:45.759Z,57.31
2017-12-24T02:01:45.756Z,57.43
2017-12-24T02:02:45.747Z,57.82
2017-12-24T02:03:45.742Z,57.40
2017-12-24T02:04:45.732Z,57.34
2017-12-24T02:05:45.729Z,57.72
2017-12-24T02:06:45.720Z,57.72
2017-12-24T02:07:45.714Z,57.53
2017-12-24T02:08:45.708Z,57.72
2017-12-24T02:09:45.702Z,57.82
2017-12-24T02:10:45.694Z,57.69
2017-12-24T02:11:45.689Z,57.72
2017-12-24T02:12:45.685Z,57.69
2017-12-24T02:13:45.677Z,57.72
2017-12-24T02:14:45.669Z,57.79
2017-12-24T02:15:45.664Z,57.72
2017-12-24T02:16:45.659Z,57.82
2017-12-24T02:17:45.650Z,57.62
2017-12-24T02:18:45.644Z,57.43
2017-12-24T02:19:45.639Z,57.53
2017-12-24T02:20:45.633Z,57.43
2017-12-24T02:21:45.624Z,57.34
2017-12-24T02:22:45.620Z,57.72
2017-12-24T02:23:45.614Z,57.43
2017-12-24T02:24:45.608Z,57.72
2017-12-24T02:25:45.600Z,57.60
2017-12-24T02:26:45.594Z,57.69
2017-12-24T02:27:45.589Z,57.62
2017-12-24T02:28:45.583Z,57.40
2017-12-24T02:29:45.575Z,57.53
2017-12-24T02:30:45.569Z,57.79
2017-12-24T02:31:45.563Z,57.72
2017-12-24T02:32:45.557Z,57.92
2017-12-24T02:33:45.550Z,57.79
2017-12-24T02:34:45.545Z,57.82
2017-12-24T02:35:45.538Z,57.89
2017-12-24T02:36:45.531Z,58.08
2017-12-24T02:37:45.526Z,57.89
2017-12-24T02:38:45.520Z,57.98
2017-12-24T02:39:45.516Z,57.60
2017-12-24T02:40:45.507Z,57.69
2017-12-24T02:41:45.501Z,57.92
2017-12-24T02:42:45.493Z,57.98
2017-12-24T02:43:45.490Z,57.79
2017-12-24T02:44:45.482Z,57.89
2017-12-24T02:45:45.476Z,57.60
2017-12-24T02:46:45.470Z,57.60
2017-12-24T02:47:45.462Z,57.72
2017-12-24T02:48:45.457Z,57.69
2017-12-24T02:49:45.451Z,57.62
2017-12-24T02:50:45.444Z,57.60
2017-12-24T02:51:45.436Z,57.60
2017-12-24T02:52:45.433Z,57.50
2017-12-24T02:53:45.424Z,57.50
2017-12-24T02:54:45.419Z,57.50
2017-12-24T02:55:45.418Z,57.60
2017-12-24T02:56:45.407Z,57.50
2017-12-24T02:57:45.400Z,57.60
2017-12-24T02:58:45.394Z,57.69
2017-12-24T02:59:45.394Z,57.62
2017-12-24T03:00:45.398Z,57.60
2017-12-24T03:01:45.386Z,57.62
2017-12-24T03:02:45.369Z,58.11
2017-12-24T03:03:45.364Z,57.92
2017-12-24T03:04:45.357Z,57.92
2017-12-24T03:05:45.350Z,58.01
2017-12-24T03:06:45.347Z,58.11
2017-12-24T03:07:45.336Z,57.92
2017-12-24T03:08:45.332Z,57.62
2017-12-24T03:09:45.325Z,57.72
2017-12-24T03:10:45.319Z,57.82
2017-12-24T03:11:45.312Z,57.82
2017-12-24T03:12:45.307Z,57.82
2017-12-24T03:13:45.300Z,57.82
2017-12-24T03:14:45.293Z,58.11
2017-12-24T03:15:45.287Z,58.11
2017-12-24T03:16:45.281Z,58.11
2017-12-24T03:17:45.275Z,58.01
2017-12-24T03:18:45.269Z,57.53
2017-12-24T03:19:45.263Z,57.82
2017-12-24T03:20:45.256Z,57.53
2017-12-24T03:21:45.251Z,57.69
2017-12-24T03:22:45.243Z,57.60
2017-12-24T03:23:45.237Z,57.60
2017-12-24T03:24:45.232Z,57.69
2017-12-24T03:25:45.225Z,57.69
2017-12-24T03:26:45.219Z,57.60
2017-12-24T03:27:45.213Z,57.50
2017-12-24T03:28:45.206Z,57.50
2017-12-24T03:29:45.200Z,57.50
2017-12-24T03:30:45.194Z,57.62
2017-12-24T03:31:45.188Z,57.69
2017-12-24T03:32:45.179Z,57.69
2017-12-24T03:33:45.173Z,57.79
2017-12-24T03:34:45.174Z,57.79
2017-12-24T03:35:45.163Z,57.79
2017-12-24T03:36:45.156Z,57.79
2017-12-24T03:37:45.150Z,57.79
2017-12-24T03:38:45.143Z,57.69
2017-12-24T03:39:45.137Z,57.69
2017-12-24T03:40:45.132Z,57.50
2017-12-24T03:41:45.125Z,57.79
2017-12-24T03:42:45.119Z,57.69
2017-12-24T03:43:45.112Z,57.60
2017-12-24T03:44:45.107Z,57.50
2017-12-24T03:45:45.102Z,57.60
2017-12-24T03:46:45.093Z,57.60
2017-12-24T03:47:45.088Z,57.60
2017-12-24T03:48:45.082Z,57.69
2017-12-24T03:49:45.074Z,57.69
2017-12-24T03:50:45.069Z,57.60
2017-12-24T03:51:45.063Z,57.79
2017-12-24T03:52:45.055Z,57.69
2017-12-24T03:53:45.052Z,57.60
2017-12-24T03:54:45.043Z,57.60
2017-12-24T03:55:45.038Z,57.40
2017-12-24T03:56:45.031Z,57.60
2017-12-24T03:57:45.023Z,57.50
2017-12-24T03:58:45.019Z,57.60
2017-12-24T03:59:45.014Z,57.60
2017-12-24T04:00:45.007Z,57.69
2017-12-24T04:01:45.002Z,57.50
2017-12-24T04:02:44.993Z,57.40
2017-12-24T04:03:44.988Z,57.69
2017-12-24T04:04:44.983Z,57.62
2017-12-24T04:05:44.975Z,57.60
2017-12-24T04:06:44.967Z,57.72
2017-12-24T04:07:44.961Z,57.62
2017-12-24T04:08:44.956Z,57.72
2017-12-24T04:09:44.950Z,57.72
2017-12-24T04:10:44.943Z,58.01
2017-12-24T04:11:44.941Z,57.82
2017-12-24T04:12:44.938Z,57.62
2017-12-24T04:13:44.924Z,57.34
2017-12-24T04:14:44.919Z,57.43
2017-12-24T04:15:44.914Z,57.43
2017-12-24T04:16:44.905Z,57.34
2017-12-24T04:17:44.899Z,57.34
2017-12-24T04:18:44.894Z,57.34
2017-12-24T04:19:44.887Z,57.43
2017-12-24T04:20:44.881Z,57.24
2017-12-24T04:21:44.874Z,57.43
2017-12-24T04:22:44.869Z,57.43
2017-12-24T04:23:44.864Z,57.53
2017-12-24T04:24:44.856Z,57.72
2017-12-24T04:25:44.850Z,57.56
2017-12-24T04:26:44.846Z,57.34
2017-12-24T04:27:44.839Z,57.27
2017-12-24T04:28:44.832Z,57.07
2017-12-24T04:29:44.824Z,56.59
2017-12-24T04:30:44.819Z,56.76
2017-12-24T04:31:44.814Z,56.85
2017-12-24T04:32:44.807Z,56.98
2017-12-24T04:33:44.803Z,56.79
2017-12-24T04:34:44.796Z,56.57
2017-12-24T04:35:44.793Z,56.88
2017-12-24T04:36:44.784Z,56.88
2017-12-24T04:37:44.777Z,56.98
2017-12-24T04:38:44.772Z,56.98
2017-12-24T04:39:44.766Z,56.98
2017-12-24T04:40:44.758Z,56.88
2017-12-24T04:41:44.756Z,56.88
2017-12-24T04:42:44.747Z,56.69
2017-12-24T04:43:44.742Z,56.88
2017-12-24T04:44:44.735Z,56.59
2017-12-24T04:45:44.728Z,56.69
2017-12-24T04:46:44.723Z,56.59
2017-12-24T04:47:44.719Z,56.59
2017-12-24T04:48:44.711Z,56.79
2017-12-24T04:49:44.705Z,56.98
2017-12-24T04:50:44.699Z,56.79
2017-12-24T04:51:44.693Z,56.79
2017-12-24T04:52:44.688Z,57.07
2017-12-24T04:53:44.683Z,56.88
2017-12-24T04:54:44.676Z,57.07
2017-12-24T04:55:44.669Z,56.98
2017-12-24T04:56:44.664Z,57.37
2017-12-24T04:57:44.657Z,57.17
2017-12-24T04:58:44.652Z,57.07
2017-12-24T04:59:44.645Z,56.76
2017-12-24T05:00:44.639Z,57.07
2017-12-24T05:01:44.631Z,57.17
2017-12-24T05:02:44.628Z,57.07
2017-12-24T05:03:44.622Z,57.65
2017-12-24T05:04:44.620Z,56.79
2017-12-24T05:05:44.609Z,57.07
2017-12-24T05:06:44.602Z,57.75
2017-12-24T05:07:44.597Z,57.56
2017-12-24T05:08:44.592Z,57.37
2017-12-24T05:09:44.589Z,57.65
2017-12-24T05:10:44.579Z,57.56
2017-12-24T05:11:44.573Z,57.53
2017-12-24T05:12:44.571Z,57.56
2017-12-24T05:13:44.560Z,57.56
2017-12-24T05:14:44.553Z,57.72
2017-12-24T05:15:44.549Z,57.53
2017-12-24T05:16:44.543Z,57.56
2017-12-24T05:17:44.535Z,57.53
2017-12-24T05:18:44.531Z,57.56
2017-12-24T05:19:44.524Z,57.53
2017-12-24T05:20:44.519Z,57.62
2017-12-24T05:21:44.512Z,57.75
2017-12-24T05:22:44.506Z,57.65
2017-12-24T05:23:44.500Z,57.72
2017-12-24T05:24:44.534Z,57.53
2017-12-24T05:25:44.486Z,57.72
2017-12-24T05:26:44.480Z,57.62
2017-12-24T05:27:44.510Z,57.53
2017-12-24T05:28:44.470Z,57.62
2017-12-24T05:29:44.467Z,57.72
2017-12-24T05:30:44.460Z,57.72
2017-12-24T05:31:44.451Z,56.85
2017-12-24T05:32:44.446Z,57.53
2017-12-24T05:33:44.439Z,57.34
2017-12-24T05:34:44.434Z,57.53
2017-12-24T05:35:44.429Z,57.53
2017-12-24T05:36:44.423Z,57.62
2017-12-24T05:37:44.415Z,57.53
2017-12-24T05:38:44.410Z,57.62
2017-12-24T05:39:44.404Z,57.53
2017-12-24T05:40:44.397Z,57.53
2017-12-24T05:41:44.393Z,57.62
2017-12-24T05:42:44.385Z,57.53
2017-12-24T05:43:44.380Z,57.53
2017-12-24T05:44:44.377Z,57.53
2017-12-24T05:45:44.369Z,57.53
2017-12-24T05:46:44.362Z,57.62
2017-12-24T05:47:44.356Z,57.43
2017-12-24T05:48:44.350Z,57.53
2017-12-24T05:49:44.345Z,57.43
2017-12-24T05:50:44.339Z,57.53
2017-12-24T05:51:44.332Z,57.53
2017-12-24T05:52:44.328Z,57.43
2017-12-24T05:53:44.340Z,57.62
2017-12-24T05:54:44.316Z,57.53
2017-12-24T05:55:44.308Z,57.53
2017-12-24T05:56:44.302Z,57.62
2017-12-24T05:57:44.296Z,57.43
2017-12-24T05:58:44.290Z,57.43
2017-12-24T05:59:44.285Z,57.14
2017-12-24T06:00:44.277Z,57.34
2017-12-24T06:01:44.272Z,57.24
2017-12-24T06:02:44.267Z,57.34
2017-12-24T06:03:44.260Z,57.43
2017-12-24T06:04:44.254Z,57.05
2017-12-24T06:05:44.247Z,57.43
2017-12-24T06:06:44.242Z,57.37
2017-12-24T06:07:44.238Z,57.37
2017-12-24T06:08:44.229Z,57.43
2017-12-24T06:09:44.223Z,57.34
2017-12-24T06:10:44.217Z,57.14
2017-12-24T06:11:44.211Z,57.37
2017-12-24T06:12:44.207Z,57.37
2017-12-24T06:13:44.198Z,57.46
2017-12-24T06:14:44.197Z,57.37
2017-12-24T06:15:44.192Z,57.27
2017-12-24T06:16:44.183Z,57.53
2017-12-24T06:17:44.176Z,57.43
2017-12-24T06:18:44.171Z,57.34
2017-12-24T06:19:44.164Z,57.17
2017-12-24T06:20:44.158Z,57.17
2017-12-24T06:21:44.151Z,57.43
2017-12-24T06:22:44.148Z,57.43
2017-12-24T06:23:44.146Z,57.46
2017-12-24T06:24:44.134Z,57.24
2017-12-24T06:25:44.128Z,57.46
2017-12-24T06:26:44.123Z,57.37
2017-12-24T06:27:44.117Z,57.27
2017-12-24T06:28:44.108Z,57.27
2017-12-24T06:29:44.104Z,57.27
2017-12-24T06:30:44.098Z,57.27
2017-12-24T06:31:44.094Z,57.56
2017-12-24T06:32:44.087Z,57.27
2017-12-24T06:33:44.080Z,57.27
2017-12-24T06:34:44.075Z,57.17
2017-12-24T06:35:44.067Z,57.24
2017-12-24T06:36:44.122Z,57.27
2017-12-24T06:37:44.055Z,57.43
2017-12-24T06:38:44.051Z,57.43
2017-12-24T06:39:44.043Z,57.56
2017-12-24T06:40:44.039Z,57.46
2017-12-24T06:41:44.032Z,57.43
2017-12-24T06:42:44.027Z,57.56
2017-12-24T06:43:44.021Z,57.46
2017-12-24T06:44:44.010Z,57.62
2017-12-24T06:45:44.007Z,57.56
2017-12-24T06:46:44.004Z,57.37
2017-12-24T06:47:43.996Z,57.56
2017-12-24T06:48:43.991Z,57.75
2017-12-24T06:49:43.984Z,57.05
2017-12-24T06:50:43.980Z,56.98
2017-12-24T06:51:43.973Z,56.98
2017-12-24T06:52:43.971Z,57.37
2017-12-24T06:53:43.962Z,57.17
2017-12-24T06:54:43.955Z,56.88
2017-12-24T06:55:43.948Z,56.88
2017-12-24T06:56:43.943Z,57.17
2017-12-24T06:57:43.937Z,56.85
2017-12-24T06:58:43.932Z,56.88
2017-12-24T06:59:43.928Z,57.07
2017-12-24T07:00:43.921Z,56.79
2017-12-24T07:01:43.913Z,57.07
2017-12-24T07:02:43.906Z,57.37
2017-12-24T07:03:43.902Z,57.53
2017-12-24T07:04:43.897Z,57.56
2017-12-24T07:05:43.892Z,57.56
2017-12-24T07:06:43.884Z,57.27
2017-12-24T07:07:43.878Z,57.17
2017-12-24T07:08:43.872Z,57.17
2017-12-24T07:09:43.866Z,57.27
2017-12-24T07:10:43.869Z,57.37
2017-12-24T07:11:43.852Z,57.46
2017-12-24T07:12:43.848Z,57.37
2017-12-24T07:13:43.841Z,57.37
2017-12-24T07:14:43.837Z,57.85
2017-12-24T07:15:43.830Z,57.37
2017-12-24T07:16:43.825Z,57.46
2017-12-24T07:17:43.819Z,57.46
2017-12-24T07:18:43.812Z,57.37
2017-12-24T07:19:43.806Z,57.75
2017-12-24T07:20:43.801Z,57.37
2017-12-24T07:21:43.794Z,57.37
2017-12-24T07:22:43.787Z,57.27
2017-12-24T07:23:43.783Z,57.46
2017-12-24T07:24:43.776Z,57.46
2017-12-24T07:25:43.770Z,57.75
2017-12-24T07:26:43.765Z,57.75
2017-12-24T07:27:43.759Z,57.56
2017-12-24T07:28:43.755Z,57.65
2017-12-24T07:29:43.747Z,57.56
2017-12-24T07:30:43.740Z,57.56
2017-12-24T07:31:43.735Z,57.94
2017-12-24T07:32:43.729Z,58.14
2017-12-24T07:33:43.725Z,57.85
2017-12-24T07:34:43.719Z,57.65
2017-12-24T07:35:43.711Z,57.75
2017-12-24T07:36:43.709Z,57.85
2017-12-24T07:37:43.699Z,57.85
2017-12-24T07:38:43.693Z,57.82
2017-12-24T07:39:43.688Z,58.11
2017-12-24T07:40:43.682Z,58.17
2017-12-24T07:41:43.673Z,58.53
2017-12-24T07:42:43.669Z,58.44
2017-12-24T07:43:43.662Z,58.44
2017-12-24T07:44:43.664Z,58.05
2017-12-24T07:45:43.648Z,57.67
2017-12-24T07:46:43.642Z,57.47
2017-12-24T07:47:43.633Z,57.37
2017-12-24T07:48:43.627Z,57.50
2017-12-24T07:49:43.620Z,56.73
2017-12-24T07:50:43.611Z,56.82
2017-12-24T07:51:43.605Z,56.63
2017-12-24T07:52:43.598Z,56.15
2017-12-24T07:53:43.590Z,56.15
2017-12-24T07:54:43.589Z,55.89
2017-12-24T07:55:43.576Z,55.70
2017-12-24T07:56:43.568Z,55.51
2017-12-24T07:57:43.560Z,55.60
2017-12-24T07:58:43.554Z,55.60
2017-12-24T07:59:43.546Z,55.22
2017-12-24T08:00:43.542Z,54.93
2017-12-24T08:01:43.530Z,54.64
2017-12-24T08:02:43.526Z,54.76
2017-12-24T08:03:43.517Z,54.96
2017-12-24T08:04:43.508Z,54.86
2017-12-24T08:05:43.503Z,54.57
2017-12-24T08:06:43.493Z,54.09
2017-12-24T08:07:43.486Z,53.99
2017-12-24T08:08:43.479Z,54.18
2017-12-24T08:09:43.470Z,54.18
2017-12-24T08:10:43.464Z,53.89
2017-12-24T08:11:43.457Z,53.51
2017-12-24T08:12:43.449Z,54.02
2017-12-24T08:13:43.442Z,53.99
2017-12-24T08:14:43.435Z,54.02
2017-12-24T08:15:43.426Z,53.99
2017-12-24T08:16:43.419Z,54.02
2017-12-24T08:17:43.413Z,53.83
2017-12-24T08:18:43.404Z,54.11
2017-12-24T08:19:43.398Z,53.92
2017-12-24T08:20:43.389Z,53.73
2017-12-24T08:21:43.382Z,53.73
2017-12-24T08:22:43.375Z,53.73
2017-12-24T08:23:43.368Z,53.53
2017-12-24T08:24:43.361Z,53.63
2017-12-24T08:25:43.353Z,53.63
2017-12-24T08:26:43.344Z,53.63
2017-12-24T08:27:43.337Z,53.53
2017-12-24T08:28:43.330Z,53.53
2017-12-24T08:29:43.323Z,53.63
2017-12-24T08:30:43.316Z,53.63
2017-12-24T08:31:43.309Z,53.63
2017-12-24T08:32:43.301Z,53.53
2017-12-24T08:33:43.295Z,53.63
2017-12-24T08:34:43.287Z,53.53
2017-12-24T08:35:43.280Z,53.83
2017-12-24T08:36:43.272Z,53.73
2017-12-24T08:37:43.265Z,53.92
2017-12-24T08:38:43.259Z,54.21
2017-12-24T08:39:43.250Z,53.83
2017-12-24T08:40:43.243Z,53.83
2017-12-24T08:41:43.234Z,53.99
2017-12-24T08:42:43.227Z,54.02
2017-12-24T08:43:43.220Z,54.09
2017-12-24T08:44:43.213Z,54.02
2017-12-24T08:45:43.204Z,54.02
2017-12-24T08:46:43.197Z,53.89
2017-12-24T08:47:43.191Z,53.92
2017-12-24T08:48:43.183Z,54.02
2017-12-24T08:49:43.179Z,54.02
2017-12-24T08:50:43.168Z,53.89
2017-12-24T08:51:43.161Z,53.83
2017-12-24T08:52:43.156Z,53.89
2017-12-24T08:53:43.146Z,53.73
2017-12-24T08:54:43.140Z,53.80
2017-12-24T08:55:43.141Z,53.51
2017-12-24T08:56:43.125Z,53.70
2017-12-24T08:57:43.117Z,53.73
2017-12-24T08:58:43.109Z,53.89
2017-12-24T08:59:43.102Z,53.99
2017-12-24T09:00:43.095Z,53.70
2017-12-24T09:01:43.093Z,53.89
2017-12-24T09:02:43.080Z,53.89
2017-12-24T09:03:43.072Z,53.80
2017-12-24T09:04:43.066Z,53.80
2017-12-24T09:05:43.057Z,53.89
2017-12-24T09:06:43.048Z,53.70
2017-12-24T09:07:43.044Z,53.89
2017-12-24T09:08:43.035Z,54.09
2017-12-24T09:09:43.028Z,53.99
2017-12-24T09:10:43.021Z,53.99
2017-12-24T09:11:43.014Z,53.99
2017-12-24T09:12:43.006Z,53.80
2017-12-24T09:13:42.997Z,53.80
2017-12-24T09:14:42.992Z,54.09
2017-12-24T09:15:42.984Z,53.80
2017-12-24T09:16:42.977Z,54.18
2017-12-24T09:17:42.967Z,53.80
2017-12-24T09:18:42.961Z,53.80
2017-12-24T09:19:42.953Z,53.99
2017-12-24T09:20:42.946Z,53.80
2017-12-24T09:21:42.938Z,54.21
2017-12-24T09:22:42.930Z,54.09
2017-12-24T09:23:42.924Z,53.80
2017-12-24T09:24:42.917Z,53.80
2017-12-24T09:25:42.908Z,54.09
2017-12-24T09:26:42.902Z,53.63
2017-12-24T09:27:42.894Z,53.80
2017-12-24T09:28:42.886Z,53.99
2017-12-24T09:29:42.876Z,53.80
2017-12-24T09:30:42.869Z,53.99
2017-12-24T09:31:42.863Z,53.80
2017-12-24T09:32:42.890Z,53.99
2017-12-24T09:33:42.849Z,53.89
2017-12-24T09:34:42.841Z,53.89
2017-12-24T09:35:42.834Z,53.80
2017-12-24T09:36:42.827Z,53.80
2017-12-24T09:37:42.818Z,53.80
2017-12-24T09:38:42.809Z,53.80
2017-12-24T09:39:42.808Z,53.80
2017-12-24T09:40:42.795Z,54.09
2017-12-24T09:41:42.788Z,54.09
2017-12-24T09:42:42.781Z,54.18
2017-12-24T09:43:42.774Z,54.18
2017-12-24T09:44:42.767Z,54.09
2017-12-24T09:45:42.761Z,54.09
2017-12-24T09:46:42.751Z,53.89
2017-12-24T09:47:42.747Z,54.09
2017-12-24T09:48:42.736Z,54.18
2017-12-24T09:49:42.729Z,54.28
2017-12-24T09:50:42.721Z,53.89
2017-12-24T09:51:42.719Z,53.99
2017-12-24T09:52:42.706Z,54.09
2017-12-24T09:53:42.697Z,54.38
2017-12-24T09:54:42.690Z,54.18
2017-12-24T09:55:42.684Z,54.18
2017-12-24T09:56:42.677Z,54.09
2017-12-24T09:57:42.669Z,54.18
2017-12-24T09:58:42.661Z,54.09
2017-12-24T09:59:42.671Z,54.18
2017-12-24T10:00:42.647Z,54.09
2017-12-24T10:01:42.650Z,54.09
2017-12-24T10:02:42.630Z,53.99
2017-12-24T10:03:42.624Z,54.18
2017-12-24T10:04:42.616Z,54.18
2017-12-24T10:05:42.618Z,54.09
2017-12-24T10:06:42.601Z,54.18
2017-12-24T10:07:42.594Z,54.09
2017-12-24T10:08:42.586Z,54.18
2017-12-24T10:09:42.579Z,54.09
2017-12-24T10:10:42.570Z,54.18
2017-12-24T10:11:42.563Z,54.09
2017-12-24T10:12:42.556Z,54.18
2017-12-24T10:13:42.547Z,54.18
2017-12-24T10:14:42.541Z,54.09
2017-12-24T10:15:42.532Z,53.99
2017-12-24T10:16:42.527Z,54.18
2017-12-24T10:17:42.518Z,54.28
2017-12-24T10:18:42.509Z,54.28
2017-12-24T10:19:42.503Z,54.28
2017-12-24T10:20:42.495Z,54.18
2017-12-24T10:21:42.486Z,54.09
2017-12-24T10:22:42.481Z,54.09
2017-12-24T10:23:42.472Z,54.18
2017-12-24T10:24:42.465Z,54.18
2017-12-24T10:25:42.469Z,54.28
2017-12-24T10:26:42.450Z,54.38
2017-12-24T10:27:42.443Z,54.09
2017-12-24T10:28:42.435Z,54.18
2017-12-24T10:29:42.425Z,54.18
2017-12-24T10:30:42.420Z,54.18
2017-12-24T10:31:42.413Z,54.18
2017-12-24T10:32:42.405Z,54.18
2017-12-24T10:33:42.396Z,54.18
2017-12-24T10:34:42.391Z,54.09
2017-12-24T10:35:42.383Z,54.09
2017-12-24T10:36:42.374Z,54.28
2017-12-24T10:37:42.365Z,53.89
2017-12-24T10:38:42.360Z,54.18
2017-12-24T10:39:42.352Z,54.18
2017-12-24T10:40:42.344Z,54.18
2017-12-24T10:41:42.337Z,54.18
2017-12-24T10:42:42.328Z,54.18
2017-12-24T10:43:42.321Z,54.09
2017-12-24T10:44:42.314Z,53.80
2017-12-24T10:45:42.306Z,53.99
2017-12-24T10:46:42.297Z,53.99
2017-12-24T10:47:42.292Z,53.99
2017-12-24T10:48:42.283Z,53.99
2017-12-24T10:49:42.276Z,53.80
2017-12-24T10:50:42.268Z,54.09
2017-12-24T10:51:42.265Z,53.99
2017-12-24T10:52:42.297Z,53.89
2017-12-24T10:53:42.283Z,54.18
2017-12-24T10:54:42.262Z,53.89
2017-12-24T10:55:42.252Z,54.18
2017-12-24T10:56:42.239Z,54.09
2017-12-24T10:57:42.214Z,54.18
2017-12-24T10:58:42.210Z,53.99
2017-12-24T10:59:42.199Z,54.18
2017-12-24T11:00:42.198Z,54.18
2017-12-24T11:01:42.184Z,53.89
2017-12-24T11:02:42.177Z,54.18
2017-12-24T11:03:42.171Z,54.18
2017-12-24T11:04:42.164Z,54.18
2017-12-24T11:05:42.155Z,54.18
2017-12-24T11:06:42.194Z,54.18
2017-12-24T11:07:42.140Z,54.18
2017-12-24T11:08:42.134Z,54.18
2017-12-24T11:09:42.124Z,53.89
2017-12-24T11:10:42.120Z,54.28
2017-12-24T11:11:42.111Z,54.09
2017-12-24T11:12:42.102Z,53.89
2017-12-24T11:13:42.094Z,54.18
2017-12-24T11:14:42.089Z,54.18
2017-12-24T11:15:42.080Z,54.18
2017-12-24T11:16:42.074Z,54.09
2017-12-24T11:17:42.062Z,54.09
2017-12-24T11:18:42.058Z,53.99
2017-12-24T11:19:42.050Z,54.18
2017-12-24T11:20:42.042Z,53.89
2017-12-24T11:21:42.035Z,53.99
2017-12-24T11:22:42.028Z,53.89
2017-12-24T11:23:42.042Z,53.89
2017-12-24T11:24:42.017Z,53.89
2017-12-24T11:25:42.004Z,53.80
2017-12-24T11:26:41.997Z,53.80
2017-12-24T11:27:41.995Z,53.61
2017-12-24T11:28:41.980Z,53.89
2017-12-24T11:29:41.974Z,53.51
2017-12-24T11:30:41.967Z,53.89
2017-12-24T11:31:41.959Z,53.99
2017-12-24T11:32:41.951Z,53.80
2017-12-24T11:33:41.944Z,53.80
2017-12-24T11:34:41.937Z,53.99
2017-12-24T11:35:41.928Z,53.89
2017-12-24T11:36:41.921Z,53.80
2017-12-24T11:37:41.914Z,53.89
2017-12-24T11:38:41.906Z,53.70
2017-12-24T11:39:41.899Z,53.89
2017-12-24T11:40:41.891Z,53.89
2017-12-24T11:41:41.882Z,53.99
2017-12-24T11:42:41.874Z,53.70
2017-12-24T11:43:41.868Z,53.61
2017-12-24T11:44:41.861Z,53.70
2017-12-24T11:45:41.852Z,53.80
2017-12-24T11:46:41.845Z,53.70
2017-12-24T11:47:41.837Z,53.70
2017-12-24T11:48:41.830Z,54.09
2017-12-24T11:49:41.823Z,54.09
2017-12-24T11:50:41.816Z,53.89
2017-12-24T11:51:41.806Z,53.89
2017-12-24T11:52:41.800Z,53.99
2017-12-24T11:53:41.790Z,53.70
2017-12-24T11:54:41.784Z,53.80
2017-12-24T11:55:41.775Z,53.89
2017-12-24T11:56:41.770Z,53.61
2017-12-24T11:57:41.763Z,53.80
2017-12-24T11:58:41.752Z,53.89
2017-12-24T11:59:41.747Z,53.61
2017-12-24T12:00:41.740Z,53.70
2017-12-24T12:01:41.731Z,53.61
2017-12-24T12:02:41.723Z,53.89
2017-12-24T12:03:41.716Z,53.80
2017-12-24T12:04:41.709Z,53.80
2017-12-24T12:05:41.700Z,53.89
2017-12-24T12:06:41.693Z,53.89
2017-12-24T12:07:41.686Z,53.80
2017-12-24T12:08:41.679Z,53.70
2017-12-24T12:09:41.670Z,53.99
2017-12-24T12:10:41.662Z,53.89
2017-12-24T12:11:41.655Z,53.80
2017-12-24T12:12:41.648Z,53.89
2017-12-24T12:13:41.640Z,53.89
2017-12-24T12:14:41.632Z,53.61
2017-12-24T12:15:41.627Z,53.99
2017-12-24T12:16:41.620Z,53.99
2017-12-24T12:17:41.610Z,53.99
2017-12-24T12:18:41.604Z,53.99
2017-12-24T12:19:41.594Z,53.99
2017-12-24T12:20:41.588Z,54.09
2017-12-24T12:21:41.580Z,53.99
2017-12-24T12:22:41.573Z,53.80
2017-12-24T12:23:41.572Z,53.80
2017-12-24T12:24:41.558Z,53.99
2017-12-24T12:25:41.549Z,54.18
2017-12-24T12:26:41.551Z,54.18
2017-12-24T12:27:41.535Z,54.18
2017-12-24T12:28:41.528Z,54.18
2017-12-24T12:29:41.519Z,54.18
2017-12-24T12:30:41.513Z,54.18
2017-12-24T12:31:41.505Z,54.18
2017-12-24T12:32:41.497Z,54.28
2017-12-24T12:33:41.490Z,54.09
2017-12-24T12:34:41.480Z,54.18
2017-12-24T12:35:41.474Z,54.18
2017-12-24T12:36:41.468Z,54.28
2017-12-24T12:37:41.459Z,54.18
2017-12-24T12:38:41.450Z,54.28
2017-12-24T12:39:41.445Z,54.09
2017-12-24T12:40:41.437Z,54.28
2017-12-24T12:41:41.433Z,54.18
2017-12-24T12:42:41.422Z,54.18
2017-12-24T12:43:41.413Z,54.18
2017-12-24T12:44:41.409Z,54.18
2017-12-24T12:45:41.399Z,53.80
2017-12-24T12:46:41.393Z,54.18
2017-12-24T12:47:41.384Z,54.18
2017-12-24T12:48:41.376Z,54.18
2017-12-24T12:49:41.367Z,53.80
2017-12-24T12:50:41.360Z,53.99
2017-12-24T12:51:41.354Z,54.18
2017-12-24T12:52:41.345Z,53.89